sensor_id;sensor_type;location;lat;lon;timestamp;P1;durP1;ratioP1;P2;durP2;ratioP2
61675;SDS011;47574;52.090;5.244;2022-12-18T00:01:00;88.3;;;48.8;;
61675;SDS011;47574;52.090;5.244;2022-12-18T00:02:36;84.3;;;46.7;;
61675;SDS011;47574;52.090;5.244;2022-12-18T00:04:14;80.5;;;45.4;;
61675;SDS011;47574;52.090;5.244;2022-12-18T00:05:58;82.1;;;46.4;;
61675;SDS011;47574;52.090;5.244;2022-12-18T00:09:12;82.9;;;46.3;;
61675;SDS011;47574;52.090;5.244;2022-12-18T00:10:48;77.2;;;44.3;;
61675;SDS011;47574;52.090;5.244;2022-12-18T00:12:24;81.2;;;45.8;;
61675;SDS011;47574;52.090;5.244;2022-12-18T00:15:37;80.0;;;44.8;;
61675;SDS011;47574;52.090;5.244;2022-12-18T00:17:14;78.41;;;44.4;;
61675;SDS011;47574;52.090;5.244;2022-12-18T00:18:52;81.3;;;45.5;;
61675;SDS011;47574;52.090;5.244;2022-12-18T00:22:12;75.91;;;45.5;;
61675;SDS011;47574;52.090;5.244;2022-12-18T00:23:49;76.11;;;44.4;;
61675;SDS011;47574;52.090;5.244;2022-12-18T00:25:26;71.3;;;43.9;;
61675;SDS011;47574;52.090;5.244;2022-12-18T00:27:03;75.61;;;44.1;;
61675;SDS011;47574;52.090;5.244;2022-12-18T00:30:15;75.91;;;43.2;;
61675;SDS011;47574;52.090;5.244;2022-12-18T00:31:52;73.0;;;42.7;;
61675;SDS011;47574;52.090;5.244;2022-12-18T00:33:28;76.61;;;42.7;;
61675;SDS011;47574;52.090;5.244;2022-12-18T00:35:06;74.91;;;42.9;;
61675;SDS011;47574;52.090;5.244;2022-12-18T00:38:19;73.5;;;42.5;;
61675;SDS011;47574;52.090;5.244;2022-12-18T00:39:55;78.11;;;45.4;;
61675;SDS011;47574;52.090;5.244;2022-12-18T00:41:31;76.5;;;45.4;;
61675;SDS011;47574;52.090;5.244;2022-12-18T00:44:44;78.41;;;44.6;;
61675;SDS011;47574;52.090;5.244;2022-12-18T00:46:21;74.7;;;43.2;;
61675;SDS011;47574;52.090;5.244;2022-12-18T00:47:57;75.0;;;42.8;;
61675;SDS011;47574;52.090;5.244;2022-12-18T00:51:09;77.41;;;44.6;;
61675;SDS011;47574;52.090;5.244;2022-12-18T00:52:45;76.11;;;43.5;;
61675;SDS011;47574;52.090;5.244;2022-12-18T00:54:22;80.11;;;45.1;;
61675;SDS011;47574;52.090;5.244;2022-12-18T00:55:59;74.7;;;44.0;;
61675;SDS011;47574;52.090;5.244;2022-12-18T00:59:11;79.5;;;44.5;;
61675;SDS011;47574;52.090;5.244;2022-12-18T01:00:47;79.0;;;45.6;;
61675;SDS011;47574;52.090;5.244;2022-12-18T01:02:24;78.41;;;45.1;;
61675;SDS011;47574;52.090;5.244;2022-12-18T01:05:38;78.3;;;45.5;;
61675;SDS011;47574;52.090;5.244;2022-12-18T01:07:15;80.61;;;45.7;;
61675;SDS011;47574;52.090;5.244;2022-12-18T01:08:51;78.3;;;45.3;;
61675;SDS011;47574;52.090;5.244;2022-12-18T01:12:04;81.3;;;46.0;;
61675;SDS011;47574;52.090;5.244;2022-12-18T01:13:41;82.3;;;46.0;;
61675;SDS011;47574;52.090;5.244;2022-12-18T01:15:18;85.5;;;47.8;;
61675;SDS011;47574;52.090;5.244;2022-12-18T01:16:55;87.4;;;48.3;;
61675;SDS011;47574;52.090;5.244;2022-12-18T01:20:09;83.6;;;46.8;;
61675;SDS011;47574;52.090;5.244;2022-12-18T01:21:47;84.2;;;47.3;;
61675;SDS011;47574;52.090;5.244;2022-12-18T01:23:23;83.1;;;45.1;;
61675;SDS011;47574;52.090;5.244;2022-12-18T01:26:40;81.61;;;45.6;;
61675;SDS011;47574;52.090;5.244;2022-12-18T01:28:16;81.8;;;46.3;;
61675;SDS011;47574;52.090;5.244;2022-12-18T01:29:53;84.0;;;46.5;;
61675;SDS011;47574;52.090;5.244;2022-12-18T01:33:09;81.8;;;45.0;;
61675;SDS011;47574;52.090;5.244;2022-12-18T01:34:45;82.5;;;45.6;;
61675;SDS011;47574;52.090;5.244;2022-12-18T01:36:22;81.8;;;44.8;;
61675;SDS011;47574;52.090;5.244;2022-12-18T01:38:00;80.41;;;44.8;;
61675;SDS011;47574;52.090;5.244;2022-12-18T01:41:13;84.2;;;45.9;;
61675;SDS011;47574;52.090;5.244;2022-12-18T01:42:55;83.1;;;46.1;;
61675;SDS011;47574;52.090;5.244;2022-12-18T01:45:00;80.11;;;45.3;;
61675;SDS011;47574;52.090;5.244;2022-12-18T01:46:56;77.11;;;42.6;;
61675;SDS011;47574;52.090;5.244;2022-12-18T01:48:33;78.91;;;42.4;;
61675;SDS011;47574;52.090;5.244;2022-12-18T01:51:50;81.0;;;44.7;;
61675;SDS011;47574;52.090;5.244;2022-12-18T01:53:27;81.61;;;44.3;;
61675;SDS011;47574;52.090;5.244;2022-12-18T01:55:05;81.61;;;44.3;;
61675;SDS011;47574;52.090;5.244;2022-12-18T01:56:42;82.2;;;44.7;;
61675;SDS011;47574;52.090;5.244;2022-12-18T02:00:00;82.1;;;45.8;;
61675;SDS011;47574;52.090;5.244;2022-12-18T02:01:43;82.2;;;44.8;;
61675;SDS011;47574;52.090;5.244;2022-12-18T02:03:19;86.0;;;46.2;;
61675;SDS011;47574;52.090;5.244;2022-12-18T02:06:33;77.91;;;42.9;;
61675;SDS011;47574;52.090;5.244;2022-12-18T02:08:15;76.41;;;41.7;;
61675;SDS011;47574;52.090;5.244;2022-12-18T02:10:02;78.11;;;42.9;;
61675;SDS011;47574;52.090;5.244;2022-12-18T02:11:48;74.41;;;42.6;;
61675;SDS011;47574;52.090;5.244;2022-12-18T02:13:31;75.11;;;43.5;;
61675;SDS011;47574;52.090;5.244;2022-12-18T02:17:03;77.11;;;43.0;;
61675;SDS011;47574;52.090;5.244;2022-12-18T02:18:47;79.91;;;44.9;;
61675;SDS011;47574;52.090;5.244;2022-12-18T02:20:31;74.5;;;41.4;;
61675;SDS011;47574;52.090;5.244;2022-12-18T02:22:17;71.8;;;41.2;;
61675;SDS011;47574;52.090;5.244;2022-12-18T02:24:10;74.2;;;42.1;;
61675;SDS011;47574;52.090;5.244;2022-12-18T02:26:02;73.91;;;41.3;;
61675;SDS011;47574;52.090;5.244;2022-12-18T02:29:27;76.5;;;42.9;;
61675;SDS011;47574;52.090;5.244;2022-12-18T02:31:10;77.0;;;41.6;;
61675;SDS011;47574;52.090;5.244;2022-12-18T02:32:52;76.8;;;41.2;;
61675;SDS011;47574;52.090;5.244;2022-12-18T02:34:31;73.3;;;41.6;;
61675;SDS011;47574;52.090;5.244;2022-12-18T02:37:52;78.0;;;43.5;;
61675;SDS011;47574;52.090;5.244;2022-12-18T02:39:29;80.8;;;42.6;;
61675;SDS011;47574;52.090;5.244;2022-12-18T02:41:08;75.11;;;41.9;;
61675;SDS011;47574;52.090;5.244;2022-12-18T02:42:45;75.0;;;42.2;;
61675;SDS011;47574;52.090;5.244;2022-12-18T02:45:58;74.3;;;42.3;;
61675;SDS011;47574;52.090;5.244;2022-12-18T02:47:56;76.11;;;41.6;;
61675;SDS011;47574;52.090;5.244;2022-12-18T02:49:34;77.61;;;43.0;;
61675;SDS011;47574;52.090;5.244;2022-12-18T02:51:22;76.8;;;41.9;;
61675;SDS011;47574;52.090;5.244;2022-12-18T02:54:55;78.8;;;41.8;;
61675;SDS011;47574;52.090;5.244;2022-12-18T02:56:41;74.91;;;43.8;;
61675;SDS011;47574;52.090;5.244;2022-12-18T02:58:26;76.8;;;42.8;;
61675;SDS011;47574;52.090;5.244;2022-12-18T03:00:10;75.5;;;42.7;;
61675;SDS011;47574;52.090;5.244;2022-12-18T03:01:51;75.3;;;42.0;;
61675;SDS011;47574;52.090;5.244;2022-12-18T03:05:16;73.3;;;41.2;;
61675;SDS011;47574;52.090;5.244;2022-12-18T03:06:59;79.41;;;43.1;;
61675;SDS011;47574;52.090;5.244;2022-12-18T03:08:42;78.61;;;42.5;;
61675;SDS011;47574;52.090;5.244;2022-12-18T03:10:24;75.41;;;42.3;;
61675;SDS011;47574;52.090;5.244;2022-12-18T03:12:06;77.11;;;42.3;;
61675;SDS011;47574;52.090;5.244;2022-12-18T03:15:34;75.0;;;41.1;;
61675;SDS011;47574;52.090;5.244;2022-12-18T03:17:14;70.61;;;41.5;;
61675;SDS011;47574;52.090;5.244;2022-12-18T03:18:56;75.61;;;42.6;;
61675;SDS011;47574;52.090;5.244;2022-12-18T03:20:37;76.2;;;41.9;;
61675;SDS011;47574;52.090;5.244;2022-12-18T03:23:59;75.7;;;41.7;;
61675;SDS011;47574;52.090;5.244;2022-12-18T03:25:39;73.3;;;40.6;;
61675;SDS011;47574;52.090;5.244;2022-12-18T03:27:18;70.61;;;40.1;;
61675;SDS011;47574;52.090;5.244;2022-12-18T03:28:59;75.91;;;42.1;;
61675;SDS011;47574;52.090;5.244;2022-12-18T03:32:23;70.8;;;40.9;;
61675;SDS011;47574;52.090;5.244;2022-12-18T03:34:04;70.3;;;40.6;;
61675;SDS011;47574;52.090;5.244;2022-12-18T03:35:48;71.7;;;40.5;;
61675;SDS011;47574;52.090;5.244;2022-12-18T03:37:25;71.3;;;40.4;;
61675;SDS011;47574;52.090;5.244;2022-12-18T03:40:51;72.5;;;40.71;;
61675;SDS011;47574;52.090;5.244;2022-12-18T03:42:37;71.3;;;39.9;;
61675;SDS011;47574;52.090;5.244;2022-12-18T03:44:26;70.61;;;39.9;;
61675;SDS011;47574;52.090;5.244;2022-12-18T03:46:08;71.0;;;39.31;;
61675;SDS011;47574;52.090;5.244;2022-12-18T03:47:54;71.91;;;39.21;;
61675;SDS011;47574;52.090;5.244;2022-12-18T03:49:38;65.8;;;38.1;;
61675;SDS011;47574;52.090;5.244;2022-12-18T03:53:08;67.1;;;39.4;;
61675;SDS011;47574;52.090;5.244;2022-12-18T03:54:54;67.41;;;38.9;;
61675;SDS011;47574;52.090;5.244;2022-12-18T03:56:35;67.1;;;38.81;;
61675;SDS011;47574;52.090;5.244;2022-12-18T03:58:16;63.5;;;37.5;;
61675;SDS011;47574;52.090;5.244;2022-12-18T04:01:38;67.41;;;38.1;;
61675;SDS011;47574;52.090;5.244;2022-12-18T04:03:18;67.41;;;39.1;;
61675;SDS011;47574;52.090;5.244;2022-12-18T04:04:57;63.8;;;37.6;;
61675;SDS011;47574;52.090;5.244;2022-12-18T04:06:38;66.0;;;37.0;;
61675;SDS011;47574;52.090;5.244;2022-12-18T04:09:53;65.91;;;36.4;;
61675;SDS011;47574;52.090;5.244;2022-12-18T04:11:32;62.7;;;35.81;;
61675;SDS011;47574;52.090;5.244;2022-12-18T04:13:08;63.4;;;36.5;;
61675;SDS011;47574;52.090;5.244;2022-12-18T04:14:44;60.6;;;35.21;;
61675;SDS011;47574;52.090;5.244;2022-12-18T04:17:57;60.8;;;35.31;;
61675;SDS011;47574;52.090;5.244;2022-12-18T04:19:33;55.8;;;33.3;;
61675;SDS011;47574;52.090;5.244;2022-12-18T04:21:09;56.5;;;34.1;;
61675;SDS011;47574;52.090;5.244;2022-12-18T04:24:24;53.6;;;32.5;;
61675;SDS011;47574;52.090;5.244;2022-12-18T04:26:00;52.5;;;31.8;;
61675;SDS011;47574;52.090;5.244;2022-12-18T04:27:36;55.1;;;32.3;;
61675;SDS011;47574;52.090;5.244;2022-12-18T04:30:48;55.1;;;32.3;;
61675;SDS011;47574;52.090;5.244;2022-12-18T04:32:24;51.2;;;30.7;;
61675;SDS011;47574;52.090;5.244;2022-12-18T04:34:01;53.5;;;31.1;;
61675;SDS011;47574;52.090;5.244;2022-12-18T04:37:13;48.5;;;30.5;;
61675;SDS011;47574;52.090;5.244;2022-12-18T04:38:49;46.7;;;28.6;;
61675;SDS011;47574;52.090;5.244;2022-12-18T04:40:25;48.0;;;29.0;;
61675;SDS011;47574;52.090;5.244;2022-12-18T04:42:01;48.4;;;29.4;;
61675;SDS011;47574;52.090;5.244;2022-12-18T04:45:14;46.7;;;28.5;;
61675;SDS011;47574;52.090;5.244;2022-12-18T04:46:50;46.3;;;28.3;;
61675;SDS011;47574;52.090;5.244;2022-12-18T04:48:26;43.4;;;27.7;;
61675;SDS011;47574;52.090;5.244;2022-12-18T04:51:40;44.2;;;28.0;;
61675;SDS011;47574;52.090;5.244;2022-12-18T04:53:16;42.7;;;27.0;;
61675;SDS011;47574;52.090;5.244;2022-12-18T04:54:52;40.9;;;27.3;;
61675;SDS011;47574;52.090;5.244;2022-12-18T04:58:07;39.81;;;27.0;;
61675;SDS011;47574;52.090;5.244;2022-12-18T04:59:43;40.0;;;26.7;;
61675;SDS011;47574;52.090;5.244;2022-12-18T05:01:19;42.0;;;26.7;;
61675;SDS011;47574;52.090;5.244;2022-12-18T05:02:55;40.6;;;25.7;;
61675;SDS011;47574;52.090;5.244;2022-12-18T05:06:08;37.81;;;25.0;;
61675;SDS011;47574;52.090;5.244;2022-12-18T05:07:45;40.0;;;25.0;;
61675;SDS011;47574;52.090;5.244;2022-12-18T05:09:22;40.21;;;25.5;;
61675;SDS011;47574;52.090;5.244;2022-12-18T05:12:36;39.6;;;24.8;;
61675;SDS011;47574;52.090;5.244;2022-12-18T05:14:13;38.1;;;25.0;;
61675;SDS011;47574;52.090;5.244;2022-12-18T05:15:50;35.5;;;23.9;;
61675;SDS011;47574;52.090;5.244;2022-12-18T05:19:04;37.21;;;24.1;;
61675;SDS011;47574;52.090;5.244;2022-12-18T05:20:40;37.21;;;24.5;;
61675;SDS011;47574;52.090;5.244;2022-12-18T05:22:17;39.4;;;25.3;;
61675;SDS011;47574;52.090;5.244;2022-12-18T05:23:53;34.81;;;24.1;;
61675;SDS011;47574;52.090;5.244;2022-12-18T05:27:05;35.21;;;24.0;;
61675;SDS011;47574;52.090;5.244;2022-12-18T05:28:41;35.81;;;23.6;;
61675;SDS011;47574;52.090;5.244;2022-12-18T05:30:18;35.9;;;22.8;;
61675;SDS011;47574;52.090;5.244;2022-12-18T05:33:31;35.0;;;23.4;;
61675;SDS011;47574;52.090;5.244;2022-12-18T05:35:10;37.71;;;23.6;;
61675;SDS011;47574;52.090;5.244;2022-12-18T05:36:47;36.9;;;24.1;;
61675;SDS011;47574;52.090;5.244;2022-12-18T05:40:02;35.0;;;22.8;;
61675;SDS011;47574;52.090;5.244;2022-12-18T05:41:40;33.21;;;22.5;;
61675;SDS011;47574;52.090;5.244;2022-12-18T05:43:16;36.71;;;23.2;;
61675;SDS011;47574;52.090;5.244;2022-12-18T05:44:53;36.31;;;23.0;;
61675;SDS011;47574;52.090;5.244;2022-12-18T05:48:06;35.81;;;23.8;;
61675;SDS011;47574;52.090;5.244;2022-12-18T05:49:43;32.5;;;22.4;;
61675;SDS011;47574;52.090;5.244;2022-12-18T05:51:20;33.3;;;22.5;;
61675;SDS011;47574;52.090;5.244;2022-12-18T05:54:33;33.8;;;23.1;;
61675;SDS011;47574;52.090;5.244;2022-12-18T05:56:11;33.5;;;22.5;;
61675;SDS011;47574;52.090;5.244;2022-12-18T05:57:50;33.9;;;22.8;;
61675;SDS011;47574;52.090;5.244;2022-12-18T05:59:26;35.4;;;22.3;;
61675;SDS011;47574;52.090;5.244;2022-12-18T06:02:46;33.71;;;22.1;;
61675;SDS011;47574;52.090;5.244;2022-12-18T06:04:23;34.1;;;22.3;;
61675;SDS011;47574;52.090;5.244;2022-12-18T06:05:59;33.9;;;22.4;;
61675;SDS011;47574;52.090;5.244;2022-12-18T06:09:11;33.9;;;22.0;;
61675;SDS011;47574;52.090;5.244;2022-12-18T06:10:49;33.4;;;22.2;;
61675;SDS011;47574;52.090;5.244;2022-12-18T06:12:27;32.5;;;21.5;;
61675;SDS011;47574;52.090;5.244;2022-12-18T06:14:04;32.9;;;22.3;;
61675;SDS011;47574;52.090;5.244;2022-12-18T06:17:17;34.6;;;22.3;;
61675;SDS011;47574;52.090;5.244;2022-12-18T06:18:55;31.1;;;21.1;;
61675;SDS011;47574;52.090;5.244;2022-12-18T06:20:32;29.0;;;20.5;;
61675;SDS011;47574;52.090;5.244;2022-12-18T06:23:44;33.71;;;21.8;;
61675;SDS011;47574;52.090;5.244;2022-12-18T06:25:20;30.1;;;20.8;;
61675;SDS011;47574;52.090;5.244;2022-12-18T06:26:56;31.0;;;20.7;;
61675;SDS011;47574;52.090;5.244;2022-12-18T06:30:09;30.2;;;20.5;;
61675;SDS011;47574;52.090;5.244;2022-12-18T06:31:46;30.1;;;20.41;;
61675;SDS011;47574;52.090;5.244;2022-12-18T06:33:25;28.0;;;20.3;;
61675;SDS011;47574;52.090;5.244;2022-12-18T06:35:02;27.3;;;19.5;;
61675;SDS011;47574;52.090;5.244;2022-12-18T06:38:16;29.9;;;21.0;;
61675;SDS011;47574;52.090;5.244;2022-12-18T06:39:52;30.0;;;20.0;;
61675;SDS011;47574;52.090;5.244;2022-12-18T06:41:28;29.6;;;20.2;;
61675;SDS011;47574;52.090;5.244;2022-12-18T06:44:41;28.3;;;20.6;;
61675;SDS011;47574;52.090;5.244;2022-12-18T06:46:18;27.9;;;20.3;;
61675;SDS011;47574;52.090;5.244;2022-12-18T06:47:55;28.0;;;19.61;;
61675;SDS011;47574;52.090;5.244;2022-12-18T06:51:07;30.3;;;19.91;;
61675;SDS011;47574;52.090;5.244;2022-12-18T06:52:43;27.7;;;19.5;;
61675;SDS011;47574;52.090;5.244;2022-12-18T06:54:20;28.0;;;19.7;;
61675;SDS011;47574;52.090;5.244;2022-12-18T06:55:59;26.4;;;18.5;;
61675;SDS011;47574;52.090;5.244;2022-12-18T06:59:13;27.3;;;18.61;;
61675;SDS011;47574;52.090;5.244;2022-12-18T07:00:50;27.9;;;18.61;;
61675;SDS011;47574;52.090;5.244;2022-12-18T07:02:26;28.5;;;19.91;;
61675;SDS011;47574;52.090;5.244;2022-12-18T07:05:39;27.0;;;19.3;;
61675;SDS011;47574;52.090;5.244;2022-12-18T07:07:16;27.8;;;18.91;;
61675;SDS011;47574;52.090;5.244;2022-12-18T07:08:53;27.3;;;19.61;;
61675;SDS011;47574;52.090;5.244;2022-12-18T07:10:30;26.3;;;18.61;;
61675;SDS011;47574;52.090;5.244;2022-12-18T07:13:43;27.4;;;19.11;;
61675;SDS011;47574;52.090;5.244;2022-12-18T07:15:20;27.6;;;19.8;;
61675;SDS011;47574;52.090;5.244;2022-12-18T07:16:56;25.7;;;18.61;;
61675;SDS011;47574;52.090;5.244;2022-12-18T07:20:09;27.5;;;19.0;;
61675;SDS011;47574;52.090;5.244;2022-12-18T07:21:46;26.2;;;18.2;;
61675;SDS011;47574;52.090;5.244;2022-12-18T07:23:22;25.6;;;18.2;;
61675;SDS011;47574;52.090;5.244;2022-12-18T07:26:34;28.5;;;19.11;;
61675;SDS011;47574;52.090;5.244;2022-12-18T07:28:11;25.7;;;19.2;;
61675;SDS011;47574;52.090;5.244;2022-12-18T07:29:47;26.6;;;19.0;;
61675;SDS011;47574;52.090;5.244;2022-12-18T07:31:23;29.0;;;19.11;;
61675;SDS011;47574;52.090;5.244;2022-12-18T07:34:36;26.3;;;19.2;;
61675;SDS011;47574;52.090;5.244;2022-12-18T07:36:13;27.4;;;18.91;;
61675;SDS011;47574;52.090;5.244;2022-12-18T07:37:50;27.9;;;20.41;;
61675;SDS011;47574;52.090;5.244;2022-12-18T07:41:02;25.2;;;18.91;;
61675;SDS011;47574;52.090;5.244;2022-12-18T07:42:40;25.8;;;18.91;;
61675;SDS011;47574;52.090;5.244;2022-12-18T07:44:17;25.8;;;18.41;;
61675;SDS011;47574;52.090;5.244;2022-12-18T07:47:33;25.5;;;18.41;;
61675;SDS011;47574;52.090;5.244;2022-12-18T07:49:10;25.7;;;17.91;;
61675;SDS011;47574;52.090;5.244;2022-12-18T07:50:46;26.3;;;18.61;;
61675;SDS011;47574;52.090;5.244;2022-12-18T07:52:22;25.3;;;18.2;;
61675;SDS011;47574;52.090;5.244;2022-12-18T07:55:35;26.8;;;19.3;;
61675;SDS011;47574;52.090;5.244;2022-12-18T07:57:11;26.9;;;19.5;;
61675;SDS011;47574;52.090;5.244;2022-12-18T07:58:47;24.4;;;17.8;;
61675;SDS011;47574;52.090;5.244;2022-12-18T08:02:00;25.7;;;18.41;;
61675;SDS011;47574;52.090;5.244;2022-12-18T08:03:37;25.9;;;18.3;;
61675;SDS011;47574;52.090;5.244;2022-12-18T08:05:14;25.3;;;18.2;;
61675;SDS011;47574;52.090;5.244;2022-12-18T08:08:27;24.9;;;18.2;;
61675;SDS011;47574;52.090;5.244;2022-12-18T08:10:04;25.7;;;18.61;;
61675;SDS011;47574;52.090;5.244;2022-12-18T08:11:41;24.2;;;17.41;;
61675;SDS011;47574;52.090;5.244;2022-12-18T08:13:18;26.5;;;18.41;;
61675;SDS011;47574;52.090;5.244;2022-12-18T08:16:31;23.5;;;16.9;;
61675;SDS011;47574;52.090;5.244;2022-12-18T08:18:07;24.3;;;17.7;;
61675;SDS011;47574;52.090;5.244;2022-12-18T08:19:43;26.9;;;18.8;;
61675;SDS011;47574;52.090;5.244;2022-12-18T08:22:58;24.9;;;17.41;;
61675;SDS011;47574;52.090;5.244;2022-12-18T08:24:34;24.9;;;18.0;;
61675;SDS011;47574;52.090;5.244;2022-12-18T08:26:10;25.7;;;18.7;;
61675;SDS011;47574;52.090;5.244;2022-12-18T08:29:23;23.3;;;17.2;;
61675;SDS011;47574;52.090;5.244;2022-12-18T08:31:00;24.4;;;17.3;;
61675;SDS011;47574;52.090;5.244;2022-12-18T08:32:36;25.0;;;17.7;;
61675;SDS011;47574;52.090;5.244;2022-12-18T08:34:11;24.9;;;17.7;;
61675;SDS011;47574;52.090;5.244;2022-12-18T08:37:24;21.7;;;16.2;;
61675;SDS011;47574;52.090;5.244;2022-12-18T08:39:00;25.7;;;18.3;;
61675;SDS011;47574;52.090;5.244;2022-12-18T08:40:36;22.3;;;17.11;;
61675;SDS011;47574;52.090;5.244;2022-12-18T08:43:48;23.6;;;17.8;;
61675;SDS011;47574;52.090;5.244;2022-12-18T08:45:25;24.0;;;17.91;;
61675;SDS011;47574;52.090;5.244;2022-12-18T08:47:01;26.7;;;18.8;;
61675;SDS011;47574;52.090;5.244;2022-12-18T08:50:13;25.0;;;17.61;;
61675;SDS011;47574;52.090;5.244;2022-12-18T08:51:53;23.1;;;17.3;;
61675;SDS011;47574;52.090;5.244;2022-12-18T08:53:30;24.0;;;17.11;;
61675;SDS011;47574;52.090;5.244;2022-12-18T08:55:07;23.5;;;17.3;;
61675;SDS011;47574;52.090;5.244;2022-12-18T08:58:20;24.9;;;18.3;;
61675;SDS011;47574;52.090;5.244;2022-12-18T08:59:57;24.7;;;18.0;;
61675;SDS011;47574;52.090;5.244;2022-12-18T09:01:33;25.9;;;18.3;;
61675;SDS011;47574;52.090;5.244;2022-12-18T09:06:24;24.0;;;17.3;;
61675;SDS011;47574;52.090;5.244;2022-12-18T09:08:00;23.4;;;17.11;;
61675;SDS011;47574;52.090;5.244;2022-12-18T09:11:13;24.8;;;16.8;;
61675;SDS011;47574;52.090;5.244;2022-12-18T09:12:53;26.3;;;18.7;;
61675;SDS011;47574;52.090;5.244;2022-12-18T09:14:30;24.2;;;18.3;;
61675;SDS011;47574;52.090;5.244;2022-12-18T09:16:06;24.6;;;17.7;;
61675;SDS011;47574;52.090;5.244;2022-12-18T09:19:19;23.6;;;17.5;;
61675;SDS011;47574;52.090;5.244;2022-12-18T09:20:55;23.1;;;17.0;;
61675;SDS011;47574;52.090;5.244;2022-12-18T09:22:31;21.2;;;16.8;;
61675;SDS011;47574;52.090;5.244;2022-12-18T09:25:49;21.9;;;16.8;;
61675;SDS011;47574;52.090;5.244;2022-12-18T09:27:25;22.4;;;16.8;;
61675;SDS011;47574;52.090;5.244;2022-12-18T09:29:01;25.1;;;18.11;;
61675;SDS011;47574;52.090;5.244;2022-12-18T09:30:38;26.2;;;18.8;;
61675;SDS011;47574;52.090;5.244;2022-12-18T09:33:54;25.3;;;17.8;;
61675;SDS011;47574;52.090;5.244;2022-12-18T09:35:30;24.8;;;18.11;;
61675;SDS011;47574;52.090;5.244;2022-12-18T09:37:07;23.4;;;17.8;;
61675;SDS011;47574;52.090;5.244;2022-12-18T09:40:21;23.6;;;17.3;;
61675;SDS011;47574;52.090;5.244;2022-12-18T09:42:01;26.0;;;18.11;;
61675;SDS011;47574;52.090;5.244;2022-12-18T09:43:40;22.3;;;17.11;;
61675;SDS011;47574;52.090;5.244;2022-12-18T09:45:21;23.8;;;17.41;;
61675;SDS011;47574;52.090;5.244;2022-12-18T09:48:46;23.0;;;17.61;;
61675;SDS011;47574;52.090;5.244;2022-12-18T09:50:26;24.5;;;17.8;;
61675;SDS011;47574;52.090;5.244;2022-12-18T09:52:09;23.8;;;17.8;;
61675;SDS011;47574;52.090;5.244;2022-12-18T09:53:52;26.4;;;17.91;;
61675;SDS011;47574;52.090;5.244;2022-12-18T09:57:14;22.8;;;17.61;;
61675;SDS011;47574;52.090;5.244;2022-12-18T09:58:55;24.0;;;17.3;;
61675;SDS011;47574;52.090;5.244;2022-12-18T10:00:34;26.0;;;18.3;;
61675;SDS011;47574;52.090;5.244;2022-12-18T10:02:12;23.0;;;17.41;;
61675;SDS011;47574;52.090;5.244;2022-12-18T10:05:34;22.4;;;16.8;;
61675;SDS011;47574;52.090;5.244;2022-12-18T10:07:24;24.2;;;18.0;;
61675;SDS011;47574;52.090;5.244;2022-12-18T10:09:11;22.9;;;17.61;;
61675;SDS011;47574;52.090;5.244;2022-12-18T10:10:57;23.8;;;17.5;;
61675;SDS011;47574;52.090;5.244;2022-12-18T10:12:45;22.8;;;17.41;;
61675;SDS011;47574;52.090;5.244;2022-12-18T10:16:17;21.4;;;16.5;;
61675;SDS011;47574;52.090;5.244;2022-12-18T10:18:03;24.4;;;17.5;;
61675;SDS011;47574;52.090;5.244;2022-12-18T10:19:58;26.3;;;17.3;;
61675;SDS011;47574;52.090;5.244;2022-12-18T10:21:39;24.4;;;18.0;;
61675;SDS011;47574;52.090;5.244;2022-12-18T10:23:25;23.3;;;17.2;;
61675;SDS011;47574;52.090;5.244;2022-12-18T10:25:14;23.6;;;17.2;;
61675;SDS011;47574;52.090;5.244;2022-12-18T10:28:45;24.9;;;18.3;;
61675;SDS011;47574;52.090;5.244;2022-12-18T10:30:23;23.3;;;17.41;;
61675;SDS011;47574;52.090;5.244;2022-12-18T10:32:01;23.7;;;17.2;;
61675;SDS011;47574;52.090;5.244;2022-12-18T10:33:38;22.8;;;16.8;;
61675;SDS011;47574;52.090;5.244;2022-12-18T10:36:55;22.8;;;16.8;;
61675;SDS011;47574;52.090;5.244;2022-12-18T10:38:32;23.9;;;17.2;;
61675;SDS011;47574;52.090;5.244;2022-12-18T10:40:10;25.2;;;18.2;;
61675;SDS011;47574;52.090;5.244;2022-12-18T10:43:25;22.6;;;16.8;;
61675;SDS011;47574;52.090;5.244;2022-12-18T10:45:08;22.7;;;16.8;;
61675;SDS011;47574;52.090;5.244;2022-12-18T10:46:50;22.4;;;16.2;;
61675;SDS011;47574;52.090;5.244;2022-12-18T10:48:30;22.4;;;16.4;;
61675;SDS011;47574;52.090;5.244;2022-12-18T10:50:10;23.7;;;17.41;;
61675;SDS011;47574;52.090;5.244;2022-12-18T10:53:44;24.1;;;16.9;;
61675;SDS011;47574;52.090;5.244;2022-12-18T10:55:31;21.7;;;16.9;;
61675;SDS011;47574;52.090;5.244;2022-12-18T10:57:18;24.6;;;16.9;;
61675;SDS011;47574;52.090;5.244;2022-12-18T10:59:07;21.6;;;16.9;;
61675;SDS011;47574;52.090;5.244;2022-12-18T11:00:47;21.9;;;16.5;;
61675;SDS011;47574;52.090;5.244;2022-12-18T11:04:16;22.4;;;16.5;;
61675;SDS011;47574;52.090;5.244;2022-12-18T11:06:01;22.2;;;16.3;;
61675;SDS011;47574;52.090;5.244;2022-12-18T11:07:46;22.3;;;16.4;;
61675;SDS011;47574;52.090;5.244;2022-12-18T11:09:24;22.0;;;16.0;;
61675;SDS011;47574;52.090;5.244;2022-12-18T11:12:43;22.9;;;16.8;;
61675;SDS011;47574;52.090;5.244;2022-12-18T11:14:21;22.8;;;16.7;;
61675;SDS011;47574;52.090;5.244;2022-12-18T11:16:00;26.9;;;17.61;;
61675;SDS011;47574;52.090;5.244;2022-12-18T11:17:36;25.4;;;18.61;;
61675;SDS011;47574;52.090;5.244;2022-12-18T11:21:00;22.2;;;16.61;;
61675;SDS011;47574;52.090;5.244;2022-12-18T11:22:44;24.2;;;16.61;;
61675;SDS011;47574;52.090;5.244;2022-12-18T11:24:32;23.4;;;16.7;;
61675;SDS011;47574;52.090;5.244;2022-12-18T11:26:12;21.9;;;15.7;;
61675;SDS011;47574;52.090;5.244;2022-12-18T11:27:50;21.1;;;16.2;;
61675;SDS011;47574;52.090;5.244;2022-12-18T11:31:21;23.8;;;16.11;;
61675;SDS011;47574;52.090;5.244;2022-12-18T11:33:02;21.6;;;16.0;;
61675;SDS011;47574;52.090;5.244;2022-12-18T11:34:42;22.0;;;16.4;;
61675;SDS011;47574;52.090;5.244;2022-12-18T11:36:23;21.8;;;16.7;;
61675;SDS011;47574;52.090;5.244;2022-12-18T11:39:49;24.1;;;16.7;;
61675;SDS011;47574;52.090;5.244;2022-12-18T11:41:32;24.2;;;16.8;;
61675;SDS011;47574;52.090;5.244;2022-12-18T11:43:17;24.8;;;18.11;;
61675;SDS011;47574;52.090;5.244;2022-12-18T11:45:02;24.0;;;17.11;;
61675;SDS011;47574;52.090;5.244;2022-12-18T11:46:58;22.8;;;16.4;;
61675;SDS011;47574;52.090;5.244;2022-12-18T11:50:22;22.4;;;16.5;;
61675;SDS011;47574;52.090;5.244;2022-12-18T11:52:04;22.6;;;16.61;;
61675;SDS011;47574;52.090;5.244;2022-12-18T11:53:51;22.3;;;16.61;;
61675;SDS011;47574;52.090;5.244;2022-12-18T11:55:28;22.4;;;16.3;;
61675;SDS011;47574;52.090;5.244;2022-12-18T11:57:26;21.8;;;15.8;;
61675;SDS011;47574;52.090;5.244;2022-12-18T11:59:13;23.5;;;16.4;;
61675;SDS011;47574;52.090;5.244;2022-12-18T12:06:36;22.4;;;15.7;;
61675;SDS011;47574;52.090;5.244;2022-12-18T12:08:24;21.2;;;15.8;;
61675;SDS011;47574;52.090;5.244;2022-12-18T12:12:10;20.7;;;15.6;;
61675;SDS011;47574;52.090;5.244;2022-12-18T12:14:05;23.7;;;17.2;;
61675;SDS011;47574;52.090;5.244;2022-12-18T12:16:12;24.1;;;17.41;;
61675;SDS011;47574;52.090;5.244;2022-12-18T12:19:43;22.5;;;16.3;;
61675;SDS011;47574;52.090;5.244;2022-12-18T12:21:28;21.6;;;16.0;;
61675;SDS011;47574;52.090;5.244;2022-12-18T12:23:17;23.6;;;16.9;;
61675;SDS011;47574;52.090;5.244;2022-12-18T12:25:14;21.9;;;16.11;;
61675;SDS011;47574;52.090;5.244;2022-12-18T12:27:00;25.6;;;17.8;;
61675;SDS011;47574;52.090;5.244;2022-12-18T12:28:51;20.6;;;16.4;;
61675;SDS011;47574;52.090;5.244;2022-12-18T12:30:43;24.7;;;16.9;;
61675;SDS011;47574;52.090;5.244;2022-12-18T12:34:26;23.7;;;16.0;;
61675;SDS011;47574;52.090;5.244;2022-12-18T12:36:12;23.9;;;16.2;;
61675;SDS011;47574;52.090;5.244;2022-12-18T12:38:01;21.4;;;16.0;;
61675;SDS011;47574;52.090;5.244;2022-12-18T12:39:45;21.0;;;15.7;;